Guatemala City, Guatemala
Current Conditions -  °F | °C
As of 8:00 PM on Saturday 22 Nov 2014 (Local Time) from MGGT Reporting Station
Clear Clear  
Wind Chill: 64°   Ceiling: Unl
Heat Index: 64°   Visibility: 6mi
Dew Point: 57°   Wind: 9mph
Humidity: 77%   Direction: 360°N
Pressure: 30.27"   Gusts: NA
Location:  14.58°N, 90.52°W
Report Text: MGGT 230200Z 36008KT CAVOK 18/14 Q1025 A3027
Loading
Personal Weather Stations






























Interactive Weather Map New forecast layout! Learn more

10-Day Weather Forecast

Advertisements
Track Severe Weather on mobile